Date,TemperatureHighF,TemperatureAvgF,TemperatureLowF,DewpointHighF,DewpointAvgF,DewpointLowF,HumidityHigh,HumidityAvg,HumidityLow,PressureMaxIn,PressureMinIn,WindSpeedMaxMPH,WindSpeedAvgMPH,GustSpeedMaxMPH,PrecipitationSumIn
2013-1-1,39,32,25,26,12,-5,83,48,16,0.00,40.00,28,12,38,0.00
2013-1-2,48,34,28,23,14,4,81,45,28,0.00,40.00,15,8,22,0.00
2013-1-3,28,23,19,25,22,18,100,95,77,0.00,40.00,21,13,26,0.00
2013-1-4,30,24,18,30,23,16,100,98,95,0.00,40.00,16,6,23,0.00
2013-1-5,41,31,23,23,12,3,100,49,20,0.00,40.00,34,19,44,0.00
2013-1-6,41,35,28,27,18,4,82,51,28,0.00,40.00,15,9,22,0.00
2013-1-7,46,38,32,33,27,14,82,65,41,0.00,40.00,27,16,36,0.00
2013-1-8,52,40,32,35,31,28,100,71,48,0.00,40.00,23,8,33,0.00
2013-1-9,34,30,28,34,30,28,100,100,100,0.00,40.00,37,20,70,0.00
2013-1-10,46,36,28,37,29,15,100,82,28,0.00,40.00,29,19,43,0.00
2013-1-11,54,49,43,38,19,11,81,33,19,0.00,40.00,31,20,52,0.00
2013-1-12,48,36,25,28,18,7,81,49,27,0.00,40.00,25,13,33,0.00
2013-1-13,36,25,19,17,8,-1,89,50,32,0.00,40.00,25,13,82,0.00
2013-1-14,32,23,18,23,20,16,100,88,57,0.00,40.00,15,9,19,0.00
2013-1-15,27,21,18,22,14,-1,100,77,40,0.00,40.00,21,11,31,0.00
2013-1-16,36,26,16,13,3,-7,56,37,31,0.00,40.00,28,18,70,0.00
2013-1-17,46,39,32,25,21,7,64,49,34,0.00,40.00,16,10,24,0.00
2013-1-18,50,41,34,24,18,13,63,40,26,0.00,40.00,18,12,27,0.00
2013-1-19,55,50,41,23,14,3,35,23,15,0.00,40.00,33,18,43,0.00
2013-1-20,59,51,45,24,16,4,33,25,15,0.00,40.00,14,8,40,0.00
2013-1-21,54,49,39,26,18,5,42,30,15,0.00,40.00,12,8,16,0.00
2013-1-22,63,54,48,27,23,20,38,30,23,0.00,40.00,15,8,19,0.00
2013-1-23,64,56,52,30,24,19,37,29,23,0.00,40.00,18,11,26,0.00
2013-1-24,64,58,54,33,30,25,43,35,22,0.00,40.00,18,12,25,0.00
2013-1-25,63,57,52,39,34,23,53,42,28,0.00,40.00,24,11,31,0.00
2013-1-26,66,59,54,37,33,28,51,38,25,0.00,40.00,23,12,72,0.00
2013-1-27,61,56,48,42,34,26,71,46,30,0.00,40.00,19,12,29,0.00
2013-1-28,61,55,50,32,27,19,46,34,21,0.00,40.00,27,16,48,0.00
2013-1-29,55,38,27,31,18,3,87,47,25,0.00,40.00,33,22,84,0.00
2013-1-30,37,29,21,17,10,1,78,47,22,0.00,40.00,31,19,79,0.00
2013-1-31,54,44,32,13,10,2,38,25,12,0.00,40.00,24,10,33,0.00
2013-2-1,61,48,41,13,10,7,30,22,13,0.00,40.00,23,12,27,0.00
2013-2-2,52,46,41,17,10,0,36,23,15,0.00,40.00,25,13,41,0.00
2013-2-3,52,48,41,22,15,5,42,27,17,0.00,40.00,20,12,34,0.00
2013-2-4,54,49,45,31,27,17,51,42,25,0.00,40.00,27,17,68,0.00
2013-2-5,57,50,45,33,29,24,58,45,30,0.00,40.00,16,10,26,0.00
2013-2-6,61,53,48,29,26,21,45,35,26,0.00,40.00,16,9,28,0.00
2013-2-7,55,48,43,29,22,17,53,37,23,0.00,40.00,39,18,53,0.00
2013-2-8,55,45,37,33,28,20,74,53,33,0.00,40.00,18,13,55,0.00
2013-2-9,63,50,36,35,24,6,65,41,12,0.00,40.00,38,21,81,0.00
2013-2-10,48,38,28,19,12,6,53,36,20,0.00,40.00,26,13,34,0.00
2013-2-11,57,47,39,29,20,6,46,35,18,0.00,40.00,27,9,54,0.00
2013-2-12,45,35,28,28,12,-1,100,41,19,0.00,40.00,33,21,81,0.00
2013-2-13,46,36,28,8,2,-3,38,24,14,0.00,40.00,19,10,25,0.00
2013-2-14,54,44,36,9,6,-3,29,21,15,0.00,40.00,24,15,42,0.00
2013-2-15,43,32,27,29,23,9,100,73,25,0.00,40.00,21,8,32,0.00
2013-2-16,54,43,32,20,10,-5,57,28,12,0.00,40.00,14,8,18,0.00
2013-2-17,61,51,43,10,1,-21,18,12,5,0.00,40.00,21,10,33,0.00
2013-2-18,54,49,43,11,3,-4,21,15,10,0.00,40.00,44,23,74,0.00
2013-2-19,54,46,39,35,14,-3,84,32,12,0.00,40.00,20,11,108,0.00
2013-2-20,64,49,36,33,20,-2,75,40,7,0.00,40.00,35,18,75,0.00
2013-2-21,45,35,27,27,14,0,85,50,15,0.00,40.00,40,22,78,0.00
2013-2-22,48,40,34,19,10,2,50,30,17,0.00,40.00,24,10,37,0.00
2013-2-23,57,44,32,21,12,4,60,30,13,0.00,40.00,37,19,51,0.00
2013-2-24,61,50,30,18,3,-5,44,16,7,0.00,40.00,49,20,71,0.00
2013-2-25,39,30,21,18,10,-1,83,45,25,0.00,40.00,47,30,89,0.00
2013-2-26,54,43,32,6,-2,-8,30,16,8,0.00,40.00,28,15,41,0.00
2013-2-27,48,33,25,17,8,-5,65,36,11,0.00,40.00,30,12,108,0.00
2013-2-28,45,36,27,14,8,3,49,33,20,0.00,40.00,14,8,21,0.00
2013-3-1,46,41,36,6,2,-3,26,20,17,0.00,40.00,27,14,62,0.00
2013-3-2,59,49,41,12,8,2,21,18,13,0.00,40.00,19,10,22,0.00
2013-3-3,66,58,48,10,4,-4,21,12,6,0.00,40.00,21,13,73,0.00
2013-3-4,68,60,55,20,-1,-11,23,9,4,0.00,40.00,34,23,83,0.00
2013-3-5,55,40,27,33,22,13,100,54,21,0.00,40.00,28,12,36,0.00
2013-3-6,59,49,39,23,20,18,47,32,22,0.00,40.00,25,15,42,0.00
2013-3-7,70,59,52,21,18,12,27,21,12,0.00,40.00,21,13,32,0.00
2013-3-8,66,58,52,36,31,19,54,36,22,0.00,40.00,24,15,73,0.00
2013-3-9,59,50,37,32,24,12,61,36,25,0.00,40.00,40,20,55,0.00
2013-3-10,37,34,27,22,15,7,69,47,29,0.00,40.00,44,15,55,0.00
2013-3-11,55,43,32,18,12,5,49,31,13,0.00,40.00,18,12,22,0.00
2013-3-12,57,49,45,23,12,1,41,23,14,0.00,40.00,27,14,34,0.00
2013-3-13,64,52,41,23,16,8,44,27,12,0.00,40.00,13,8,24,0.00
2013-3-14,70,59,52,18,12,5,26,16,10,0.00,40.00,17,9,21,0.00
2013-3-15,73,64,55,16,10,6,21,13,9,0.00,40.00,17,9,21,0.00
2013-3-16,72,65,61,11,6,-1,13,10,7,0.00,40.00,27,15,72,0.00
2013-3-17,66,61,55,16,8,0,18,12,8,0.00,40.00,27,18,73,0.00
2013-3-18,64,58,52,16,12,8,22,16,13,0.00,40.00,32,17,71,0.00
2013-3-19,66,59,54,20,13,9,27,16,11,0.00,40.00,19,13,29,0.00
2013-3-20,59,47,36,40,36,21,100,68,30,0.00,40.00,22,11,105,0.00
2013-3-21,70,61,50,39,22,10,66,26,12,0.00,40.00,30,19,73,0.00
2013-3-22,68,60,54,25,13,8,27,16,10,0.00,40.00,27,17,73,0.00
2013-3-23,63,56,50,24,14,-2,34,19,10,0.00,40.00,29,20,68,0.00
2013-3-24,52,35,21,16,4,-15,76,31,11,0.00,40.00,26,9,98,0.00
2013-3-25,45,37,23,14,9,4,49,32,22,0.00,40.00,15,9,22,0.00
2013-3-26,55,42,30,15,13,11,51,33,17,0.00,40.00,19,11,27,0.00
2013-3-27,68,57,45,29,20,12,40,24,16,0.00,40.00,21,12,68,0.00
2013-3-28,72,62,55,39,28,21,47,29,17,0.00,40.00,17,9,24,0.00
2013-3-29,72,63,57,38,25,14,49,26,14,0.00,40.00,15,10,52,0.00
2013-3-30,72,64,59,22,14,-100,20,15,13,0.00,40.00,18,11,28,0.00
2013-3-31,64,61,55,37,27,17,46,28,18,0.00,40.00,16,9,90,0.00
2013-4-1,75,62,54,47,34,21,70,39,15,0.00,40.00,18,9,26,0.00
2013-4-2,63,57,41,46,40,30,100,55,33,0.00,40.00,16,9,22,0.00
2013-4-3,57,43,34,45,35,24,100,77,29,0.00,40.00,19,8,36,0.00
2013-4-4,64,55,48,31,23,13,51,29,13,0.00,40.00,16,10,26,0.00
2013-4-5,70,60,52,29,24,17,39,26,14,0.00,40.00,21,14,45,0.00
2013-4-6,72,64,57,27,18,7,29,18,9,0.00,40.00,30,17,71,0.00
2013-4-7,72,65,57,19,13,8,20,13,10,0.00,40.00,29,15,70,0.00
2013-4-8,73,61,32,22,10,-51,23,14,7,0.00,40.00,23,13,36,0.00
2013-4-9,70,60,48,29,20,12,39,23,11,0.00,40.00,33,20,70,0.00
2013-4-10,54,42,32,36,26,18,100,56,25,0.00,40.00,27,12,71,0.00
2013-4-11,57,48,39,23,17,11,48,31,17,0.00,40.00,27,13,71,0.00
2013-4-12,70,60,52,32,12,7,41,15,10,0.00,40.00,14,7,24,0.00
2013-4-13,64,56,52,42,35,25,62,46,30,0.00,40.00,18,9,76,0.00
2013-4-14,70,62,55,32,20,11,38,21,11,0.00,40.00,24,16,39,0.00
2013-4-15,73,65,57,21,15,10,21,15,10,0.00,40.00,29,17,69,0.00
2013-4-16,79,70,64,14,8,-3,13,9,5,0.00,40.00,17,10,31,0.00
2013-4-17,75,68,59,51,14,-2,66,17,5,0.00,40.00,29,16,72,0.00
2013-4-18,59,47,34,31,18,7,83,34,16,0.00,40.00,34,16,48,0.00
2013-4-19,61,46,32,22,12,3,48,28,10,0.00,40.00,14,8,22,0.00
2013-4-20,70,56,46,21,9,-5,27,17,6,0.00,40.00,24,17,67,0.00
2013-4-21,73,63,52,13,6,-5,18,11,7,0.00,40.00,27,12,67,0.00
2013-4-22,77,69,63,9,6,3,11,8,6,0.00,40.00,18,12,28,0.00
2013-4-23,70,56,39,32,23,3,69,33,7,0.00,40.00,23,10,42,0.00
2013-4-24,59,41,25,38,30,24,100,66,42,0.00,40.00,20,12,28,0.00
2013-4-25,73,60,46,47,38,24,79,47,17,0.00,40.00,21,11,32,0.00
2013-4-26,73,64,57,41,20,-1,51,23,8,0.00,40.00,23,14,67,0.00
2013-4-27,66,60,46,42,27,-2,63,32,7,0.00,40.00,18,12,28,0.00
2013-4-28,68,59,52,54,42,30,100,59,27,0.00,40.00,20,10,23,0.00
2013-4-29,75,63,50,45,30,16,82,35,11,0.00,40.00,14,9,25,0.00
2013-4-30,79,70,61,33,17,6,34,15,8,0.00,40.00,21,14,44,0.00
2013-5-1,77,70,63,28,13,6,24,11,8,0.00,40.00,29,15,75,0.00
2013-5-2,66,36,27,39,28,20,100,77,23,0.00,40.00,23,16,97,0.00
2013-5-3,57,41,27,22,13,5,74,39,14,0.00,40.00,19,10,31,0.00
2013-5-4,68,57,46,22,14,5,24,18,15,0.00,40.00,20,10,24,0.00
2013-5-5,68,58,50,23,19,15,28,21,15,0.00,40.00,20,12,32,0.00
2013-5-6,72,61,54,32,26,20,35,27,15,0.00,40.00,23,11,32,0.00
2013-5-7,72,64,57,40,26,18,52,25,14,0.00,40.00,23,12,32,0.00
2013-5-8,73,65,57,28,22,14,31,20,12,0.00,40.00,30,14,38,0.00
2013-5-9,72,64,59,28,22,17,28,20,13,0.00,40.00,21,12,35,0.00
2013-5-10,63,52,45,48,36,-100,88,60,23,0.00,40.00,27,11,93,0.00
2013-5-11,57,50,45,46,41,-100,100,74,48,0.00,40.00,17,11,107,0.00
2013-5-12,63,54,48,39,34,26,65,49,25,0.00,40.00,22,13,30,0.00
2013-5-13,68,57,48,43,35,30,65,45,26,0.00,40.00,16,9,27,0.00
2013-5-14,68,59,52,48,41,32,84,53,31,0.00,40.00,40,13,55,0.00
2013-5-15,75,66,54,40,31,24,61,29,17,0.00,40.00,27,16,70,0.00
2013-5-16,81,68,66,26,8,-100,19,15,11,0.00,40.00,31,18,74,0.00
2013-5-17,82,75,70,25,16,-100,16,12,5,0.00,40.00,23,12,72,0.00
2013-5-18,79,72,64,22,14,3,17,11,7,0.00,40.00,31,16,72,0.00
2013-5-19,77,70,61,20,14,9,18,12,8,0.00,40.00,32,17,76,0.00
2013-5-20,79,71,63,21,16,11,19,12,9,0.00,40.00,44,19,79,0.00
2013-5-21,75,67,57,23,17,12,24,15,10,0.00,40.00,33,15,70,0.00
2013-5-22,81,72,61,31,23,14,29,17,8,0.00,40.00,18,10,27,0.00
2013-5-23,82,68,54,55,45,15,100,48,10,0.00,40.00,29,15,81,0.00
2013-5-24,75,65,54,58,50,43,100,61,44,0.00,40.00,20,10,29,0.00
2013-5-25,77,68,61,55,47,36,75,51,25,0.00,40.00,23,10,31,0.00
2013-5-26,84,71,55,53,43,32,90,42,16,0.00,40.00,23,12,84,0.00
2013-5-27,84,73,63,57,45,22,79,42,12,0.00,40.00,21,12,69,0.00
2013-5-28,73,68,66,56,52,47,70,58,39,0.00,40.00,17,12,23,0.00
2013-5-29,77,73,64,31,19,14,29,14,9,0.00,40.00,27,15,69,0.00
2013-5-30,81,72,64,30,26,17,24,18,14,0.00,40.00,32,16,78,0.00
2013-5-31,84,76,68,27,23,16,19,14,9,0.00,40.00,22,12,41,0.00
2013-6-1,79,74,66,58,28,11,73,21,9,0.00,40.00,29,15,97,0.00
2013-6-2,77,66,55,58,54,46,97,66,40,0.00,40.00,27,14,73,0.00
2013-6-3,82,70,54,53,46,40,99,46,25,0.00,40.00,38,11,70,0.00
2013-6-4,86,77,68,54,40,25,60,30,12,0.00,40.00,19,11,25,0.00
2013-6-5,86,78,72,44,35,28,37,23,13,0.00,40.00,16,9,88,0.00
2013-6-6,75,65,55,53,50,41,78,60,30,0.00,40.00,23,12,36,0.00
2013-6-7,72,61,55,59,54,36,100,81,31,0.00,40.00,17,9,23,0.00
2013-6-8,82,71,59,49,41,29,67,37,16,0.00,40.00,26,11,32,0.00
2013-6-9,81,74,68,54,45,40,62,36,25,0.00,40.00,21,12,29,0.00
2013-6-10,84,73,64,54,44,33,62,39,17,0.00,40.00,19,10,28,0.00
2013-6-11,84,72,63,55,47,27,77,47,13,0.00,40.00,18,9,96,0.00
2013-6-12,82,73,64,57,49,35,68,46,19,0.00,40.00,18,10,110,0.00
2013-6-13,75,65,57,61,56,47,100,75,49,0.00,40.00,16,9,83,0.00
2013-6-14,70,62,57,64,57,51,100,84,58,0.00,40.00,15,6,21,0.00
2013-6-15,81,70,61,61,53,45,100,59,32,0.00,40.00,12,6,22,0.00
2013-6-16,82,75,68,61,51,41,72,44,31,0.00,40.00,21,6,92,0.00
2013-6-17,81,71,55,61,55,45,100,59,32,0.00,40.00,25,9,48,0.00
2013-6-18,77,68,59,63,55,45,100,66,41,0.00,40.00,23,9,31,0.00
2013-6-19,82,73,64,60,53,36,83,54,21,0.00,40.00,21,13,30,0.00
2013-6-20,81,71,66,61,54,46,80,56,31,0.00,40.00,19,12,28,0.00
2013-6-22,82,76,70,57,48,39,65,39,23,0.00,40.00,15,10,21,0.00
2013-6-23,82,75,68,57,48,39,67,41,23,0.00,40.00,22,9,29,0.00
2013-6-24,81,72,64,58,53,45,70,53,30,0.00,40.00,21,11,58,0.00
2013-6-25,82,76,68,58,50,43,70,43,25,0.00,40.00,18,10,38,0.00
2013-6-26,88,79,70,60,43,30,66,32,13,0.00,40.00,20,11,26,0.00
2013-6-27,86,79,73,54,43,35,50,29,18,0.00,40.00,16,10,25,0.00
2013-6-28,81,76,70,44,37,29,33,25,16,0.00,40.00,16,11,26,0.00
2013-6-29,84,78,73,49,42,32,39,29,17,0.00,40.00,20,8,25,0.00
2013-6-30,79,72,64,54,47,39,58,42,25,0.00,40.00,19,9,31,0.00
2013-7-1,68,59,55,57,54,49,100,84,55,0.00,40.00,17,10,95,0.00
2013-7-2,72,62,55,49,47,45,76,58,40,0.00,40.00,16,10,22,0.00
2013-7-3,73,66,61,46,44,38,56,45,35,0.00,40.00,13,7,22,0.00
2013-7-4,77,70,63,48,42,38,51,37,28,0.00,40.00,19,13,28,0.00
2013-7-5,82,74,64,51,44,39,52,36,23,0.00,40.00,20,10,26,0.00
2013-7-6,82,73,66,52,48,43,56,42,25,0.00,40.00,20,10,54,0.00
2013-7-7,82,74,66,53,46,39,58,40,23,0.00,40.00,19,9,29,0.00
2013-7-8,79,66,63,58,51,-100,77,63,32,0.00,40.00,19,10,27,0.00
2013-7-9,77,68,63,59,56,52,87,67,42,0.00,40.00,15,8,28,0.00
2013-7-10,79,68,63,59,50,-100,89,60,37,0.00,40.00,17,9,28,0.00
2013-7-11,81,70,64,56,53,47,74,55,33,0.00,40.00,22,11,106,0.00
2013-7-12,81,73,64,57,49,39,69,45,23,0.00,40.00,16,10,28,0.00
2013-7-13,81,74,64,52,45,37,62,38,22,0.00,40.00,19,10,29,0.00
2013-7-14,82,75,66,46,41,33,49,31,19,0.00,40.00,19,7,27,0.00
2013-7-15,75,60,52,57,51,34,100,82,23,0.00,40.00,20,9,64,0.00
2013-7-16,59,54,52,55,54,52,100,99,82,0.00,40.00,13,9,19,0.00
2013-7-17,59,58,55,59,58,55,100,100,100,0.00,40.00,23,13,30,0.00
2013-7-18,63,60,57,61,59,57,100,97,85,0.00,40.00,18,12,25,0.00
2013-7-19,66,61,59,63,60,58,100,95,76,0.00,40.00,13,8,25,0.00
2013-7-20,70,62,59,61,57,-100,100,88,67,0.00,40.00,12,7,22,0.00
2013-7-21,73,63,57,61,57,55,100,83,55,0.00,40.00,12,6,21,0.00
2013-7-22,77,66,61,64,59,52,100,79,45,0.00,40.00,16,8,24,0.00
2013-7-23,77,69,63,64,59,53,100,72,46,0.00,40.00,14,9,24,0.00
2013-7-24,81,70,66,62,58,53,82,65,40,0.00,40.00,15,9,21,0.00
2013-7-25,79,70,59,61,53,45,100,58,33,0.00,40.00,11,6,22,0.00
2013-7-26,79,70,61,61,55,50,100,62,47,0.00,40.00,29,10,41,0.00
2013-7-27,73,66,61,63,58,49,100,77,53,0.00,40.00,16,8,23,0.00
2013-7-28,73,66,63,64,57,52,96,73,54,0.00,40.00,18,9,24,0.00
2013-7-29,75,68,59,60,57,54,96,68,52,0.00,40.00,24,9,33,0.00
2013-7-30,79,73,68,59,56,51,65,55,46,0.00,40.00,17,7,32,0.00
2013-7-31,81,76,70,56,50,43,57,41,32,0.00,40.00,15,8,23,0.00
2013-8-1,81,73,66,55,48,39,67,44,24,0.00,40.00,15,10,94,0.00
2013-8-2,82,75,68,51,46,42,53,37,26,0.00,40.00,17,9,26,0.00
2013-8-3,84,76,68,53,47,39,56,37,22,0.00,40.00,16,8,22,0.00
2013-8-4,84,74,66,56,52,48,63,47,32,0.00,40.00,19,9,96,0.00
2013-8-5,84,74,66,57,53,45,67,50,27,0.00,40.00,18,9,25,0.00
2013-8-6,81,72,66,58,53,46,70,52,32,0.00,40.00,21,11,41,0.00
2013-8-7,75,69,64,58,53,46,75,57,38,0.00,40.00,22,11,42,0.00
2013-8-8,81,73,61,56,48,42,82,43,27,0.00,40.00,19,10,74,0.00
2013-8-9,77,72,66,58,52,47,61,50,39,0.00,40.00,21,9,45,0.00
2013-8-10,73,67,63,59,54,48,77,63,49,0.00,40.00,20,11,101,0.00
2013-8-11,75,69,63,57,55,51,81,61,42,0.00,40.00,16,10,24,0.00
2013-8-21,77,69,63,53,44,38,62,42,25,0.00,40.00,16,10,23,0.00
2013-8-22,75,67,63,57,54,49,75,63,43,0.00,40.00,12,8,19,0.00
2013-8-23,70,65,59,58,55,53,85,72,57,0.00,40.00,12,8,25,0.00
2013-8-24,75,64,63,57,39,-100,81,49,43,0.00,40.00,13,10,23,0.00
2013-8-25,73,68,63,56,53,51,73,60,46,0.00,40.00,16,9,25,0.00
2013-8-26,70,66,63,56,54,52,78,67,53,0.00,40.00,13,8,20,0.00
2013-8-27,70,64,59,60,58,56,100,80,61,0.00,40.00,13,11,20,0.00
2013-9-6,75,69,63,54,52,48,68,55,38,0.00,40.00,13,10,21,0.00
2013-9-7,75,61,63,54,35,-100,74,49,38,0.00,40.00,12,9,21,0.00
2013-9-8,73,66,63,57,54,52,82,66,49,0.00,40.00,17,10,28,0.00
2013-9-9,68,62,57,59,57,56,100,83,67,0.00,40.00,17,11,24,0.00
2013-9-10,63,62,61,63,60,58,100,95,85,0.00,40.00,13,10,19,0.00
2013-9-11,61,61,61,61,61,61,100,100,100,0.00,40.00,11,7,18,0.00
2013-9-12,61,61,61,61,61,61,100,100,100,0.00,40.00,6,6,12,0.00
2013-9-21,66,53,50,53,44,-100,100,81,57,0.00,40.00,12,8,20,0.00
2013-9-22,70,61,55,55,46,37,100,62,36,0.00,40.00,14,7,18,0.00
2013-9-23,73,63,59,52,48,39,68,60,29,0.00,40.00,18,15,28,0.00
2013-9-24,72,66,61,33,30,27,32,27,22,0.00,40.00,12,8,18,0.00
2013-9-25,79,74,68,41,37,35,32,27,21,0.00,40.00,13,10,20,0.00
2013-9-26,79,71,64,46,42,38,45,36,25,0.00,40.00,19,13,24,0.00
2013-9-27,73,69,63,56,53,45,68,56,44,0.00,40.00,19,11,24,0.00
2013-11-17,61,55,52,37,34,29,53,46,33,0.00,40.00,23,16,41,0.00
2013-11-18,57,55,54,36,34,32,47,44,43,0.00,40.00,20,10,26,0.00
2013-11-19,66,60,55,42,37,31,57,42,34,0.00,40.00,14,10,20,0.00
2013-11-20,68,60,55,47,37,25,73,46,24,0.00,40.00,16,10,24,0.00
2013-11-21,68,58,54,50,35,27,89,46,23,0.00,40.00,17,12,25,0.00
2013-11-22,45,29,19,42,27,18,100,95,90,0.00,40.00,19,8,27,0.00
2013-11-23,23,21,19,23,21,18,100,99,96,0.00,40.00,1,0,9,0.00
2013-12-26,46,40,34,20,18,15,45,40,35,0.00,40.00,7,5,10,0.00
2013-12-27,37,36,36,25,24,24,64,62,59,0.00,40.00,9,8,12,0.00
2013-12-28,41,20,41,29,-36,-100,63,32,63,0.00,40.00,12,11,24,0.00
2013-12-29,27,27,27,22,22,22,83,83,83,0.00,40.00,17,17,28,0.00
2013-12-30,37,37,37,22,22,22,54,54,54,0.00,40.00,15,15,20,0.00
2013-12-31,41,41,41,20,20,20,42,42,42,0.00,40.00,9,9,14,0.00